Time;durP1;ratioP1;P1;durP2;ratioP2;P2;SDS_P1;SDS_P2;PMS_P1;PMS_P2;Temp;Humidity;BMP_temperature;BMP_pressure;BME280_temperature;BME280_humidity;BME280_pressure;Samples;Min_cycle;Max_cycle;Signal;HPM_P1;HPM_P2
2023/09/27 00:02:15;;;;;;;10.13;9.23;;;;;;;17.34;70.74;93189.91;5037464;28;20262;-75
2023/09/27 00:04:41;;;;;;;11.17;10.23;;;;;;;17.49;69.78;93210.63;5034721;28;20357;-75
2023/09/27 00:07:06;;;;;;;11.00;9.80;;;;;;;17.45;69.78;93199.13;5036722;28;20187;-75
2023/09/27 00:09:32;;;;;;;9.83;8.80;;;;;;;17.38;70.62;93217.25;5041620;28;20237;-75
2023/09/27 00:11:58;;;;;;;13.40;9.70;;;;;;;17.41;70.03;93211.38;5054115;28;20249;-75
2023/09/27 00:14:24;;;;;;;11.00;10.20;;;;;;;17.36;70.85;93206.22;5038368;28;20230;-75
2023/09/27 00:16:49;;;;;;;13.57;10.90;;;;;;;17.39;70.94;93202.97;5044415;28;20178;-75
2023/09/27 00:19:15;;;;;;;10.27;9.47;;;;;;;17.29;70.80;93205.88;5037217;28;20254;-75
2023/09/27 00:21:41;;;;;;;11.50;10.50;;;;;;;17.29;70.64;93205.88;5034975;28;20920;-74
2023/09/27 00:24:07;;;;;;;11.27;10.10;;;;;;;17.34;70.70;93200.47;5043309;28;20245;-75
2023/09/27 00:26:32;;;;;;;10.07;9.00;;;;;;;17.28;71.38;93196.41;5040528;28;20174;-75
2023/09/27 00:28:58;;;;;;;10.10;9.50;;;;;;;17.16;71.43;93198.84;5035023;28;20237;-76
2023/09/27 00:31:23;;;;;;;13.17;9.40;;;;;;;17.24;71.49;93198.09;5048056;28;20194;-76
2023/09/27 00:33:49;;;;;;;11.43;10.40;;;;;;;17.18;71.45;93194.03;5044561;28;20214;-75
2023/09/27 00:36:16;;;;;;;11.90;10.70;;;;;;;17.20;71.16;93186.59;5048061;28;20191;-75
2023/09/27 00:38:41;;;;;;;12.63;9.93;;;;;;;17.13;71.82;93196.03;5047070;28;20234;-75
2023/09/27 00:41:07;;;;;;;14.90;11.07;;;;;;;17.02;72.27;93190.25;5043177;28;20185;-76
2023/09/27 00:43:34;;;;;;;10.83;10.00;;;;;;;17.00;72.58;93186.34;5047592;28;20226;-75
2023/09/27 00:46:04;;;;;;;11.97;10.63;;;;;;;17.09;72.30;93187.16;5035112;28;20198;-75
2023/09/27 00:48:31;;;;;;;11.47;10.10;;;;;;;17.00;72.28;93181.84;5035504;28;20222;-75
2023/09/27 00:50:57;;;;;;;10.73;10.10;;;;;;;17.08;72.16;93186.38;5039168;28;20187;-75
2023/09/27 00:53:25;;;;;;;11.40;10.30;;;;;;;17.02;72.28;93187.59;5035838;28;20211;-75
2023/09/27 00:55:51;;;;;;;10.80;9.97;;;;;;;16.98;72.09;93185.88;5048138;28;20179;-77
2023/09/27 00:58:20;;;;;;;11.32;10.30;;;;;;;17.00;71.49;93189.75;5047442;28;20498;-75
2023/09/27 01:00:49;;;;;;;13.23;10.80;;;;;;;16.98;71.04;93189.28;5039649;28;20226;-75
2023/09/27 01:03:15;;;;;;;11.10;10.20;;;;;;;16.92;70.88;93165.97;5048836;28;20229;-75
2023/09/27 01:05:45;;;;;;;12.93;10.40;;;;;;;17.09;71.29;93189.81;5047982;28;20190;-75
2023/09/27 01:08:10;;;;;;;10.47;9.50;;;;;;;16.90;71.20;93174.19;5042872;28;20238;-75
2023/09/27 01:10:36;;;;;;;11.60;9.60;;;;;;;16.94;71.41;93193.59;5030266;28;20183;-75
2023/09/27 01:13:02;;;;;;;10.63;9.83;;;;;;;17.00;71.79;93192.41;5045763;28;20226;-75
2023/09/27 01:15:28;;;;;;;11.27;10.37;;;;;;;16.95;71.64;93194.41;5035823;28;20217;-75
2023/09/27 01:17:54;;;;;;;17.23;10.27;;;;;;;17.00;71.58;93197.66;5038056;28;20230;-75
2023/09/27 01:20:20;;;;;;;10.40;9.57;;;;;;;16.83;72.73;93187.03;5054578;28;20210;-74
2023/09/27 01:23:05;;;;;;;15.20;10.10;;;;;;;16.80;72.97;93198.19;5039201;28;20191;-74
2023/09/27 01:25:33;;;;;;;18.97;12.67;;;;;;;16.65;73.00;93190.66;5033135;28;20194;-75
2023/09/27 01:28:00;;;;;;;10.57;9.87;;;;;;;16.74;73.02;93185.41;5030936;28;20280;-75
2023/09/27 01:30:26;;;;;;;11.23;10.37;;;;;;;16.68;72.53;93182.16;5042244;28;20258;-75
2023/09/27 01:32:52;;;;;;;11.03;10.00;;;;;;;16.85;72.04;93184.88;5030548;28;20226;-75
2023/09/27 01:35:17;;;;;;;9.63;8.97;;;;;;;16.78;72.40;93183.75;5030457;28;21019;-75
2023/09/27 01:37:42;;;;;;;11.03;9.77;;;;;;;16.87;72.45;93193.25;5047442;28;20241;-75
2023/09/27 01:40:16;;;;;;;10.37;9.50;;;;;;;16.79;72.60;93198.47;5039823;28;20277;-75
2023/09/27 01:42:42;;;;;;;15.07;10.77;;;;;;;16.74;72.48;93175.66;5047516;28;20183;-75
2023/09/27 01:45:09;;;;;;;14.87;11.00;;;;;;;16.78;73.35;93187.16;5030694;28;20253;-75
2023/09/27 01:47:34;;;;;;;10.37;9.47;;;;;;;16.67;73.67;93193.00;5043041;28;20173;-75
2023/09/27 01:50:01;;;;;;;11.70;9.57;;;;;;;16.70;73.43;93179.22;5036306;28;20190;-75
2023/09/27 01:52:26;;;;;;;14.30;10.33;;;;;;;16.41;74.19;93186.72;5040843;28;20182;-75
2023/09/27 01:54:52;;;;;;;10.97;10.13;;;;;;;16.44;73.11;93189.56;5036862;28;20214;-75
2023/09/27 01:57:17;;;;;;;11.73;10.53;;;;;;;16.54;73.15;93183.28;5033764;28;20250;-75
2023/09/27 01:59:43;;;;;;;11.00;10.00;;;;;;;16.56;72.93;93170.59;5048092;28;20237;-80
2023/09/27 02:02:08;;;;;;;10.37;9.43;;;;;;;16.66;73.00;93184.28;5051970;28;20212;-75
2023/09/27 02:04:34;;;;;;;10.90;9.83;;;;;;;16.60;73.78;93177.59;5042293;28;20215;-74
2023/09/27 02:06:59;;;;;;;10.67;9.77;;;;;;;16.64;73.71;93181.19;5046674;28;20191;-74
2023/09/27 02:09:24;;;;;;;10.80;9.50;;;;;;;16.37;73.87;93141.75;5047149;28;20277;-74
2023/09/27 02:11:50;;;;;;;11.23;9.93;;;;;;;16.55;74.67;93167.16;5048100;28;20274;-74
2023/09/27 02:14:15;;;;;;;11.20;10.23;;;;;;;16.65;73.54;93184.59;5046603;28;20229;-74
2023/09/27 02:16:43;;;;;;;12.40;11.13;;;;;;;16.66;74.09;93181.66;5038544;28;20178;-74
2023/09/27 02:19:09;;;;;;;10.67;9.93;;;;;;;16.58;74.24;93187.66;5039053;28;20230;-75
2023/09/27 02:21:34;;;;;;;14.13;10.77;;;;;;;16.53;74.78;93185.13;5039670;28;20250;-74
2023/09/27 02:23:59;;;;;;;10.87;9.97;;;;;;;16.50;74.89;93183.09;5044161;28;20237;-74
2023/09/27 02:26:25;;;;;;;11.47;9.63;;;;;;;16.53;74.76;93181.75;5038898;28;20187;-74
2023/09/27 02:28:50;;;;;;;11.80;10.77;;;;;;;16.45;75.37;93180.56;5049819;28;20222;-74
2023/09/27 02:31:15;;;;;;;12.03;11.03;;;;;;;16.46;74.74;93182.16;5040714;28;20187;-74
2023/09/27 02:33:41;;;;;;;12.77;10.63;;;;;;;16.50;74.62;93184.97;5044444;28;20899;-74
2023/09/27 02:36:06;;;;;;;11.40;10.50;;;;;;;16.35;75.08;93172.91;5050861;28;20249;-74
2023/09/27 02:38:35;;;;;;;11.07;9.93;;;;;;;16.47;75.08;93178.44;5037696;28;20226;-74
2023/09/27 02:41:02;;;;;;;12.07;10.97;;;;;;;16.43;75.48;93182.72;5038798;28;20210;-74
2023/09/27 02:43:27;;;;;;;11.87;10.67;;;;;;;16.38;74.72;93179.41;5050003;28;20226;-74
2023/09/27 02:45:53;;;;;;;11.33;10.23;;;;;;;16.32;75.73;93181.41;5040778;28;20250;-74
2023/09/27 02:48:18;;;;;;;12.03;11.10;;;;;;;16.27;75.79;93184.16;5044175;28;20222;-74
2023/09/27 02:50:52;;;;;;;14.37;10.40;;;;;;;16.32;75.46;93196.44;5042108;28;20190;-74
2023/09/27 02:53:18;;;;;;;11.27;10.50;;;;;;;16.28;76.00;93188.34;5040845;28;20282;-74
2023/09/27 02:55:44;;;;;;;11.17;10.10;;;;;;;16.23;76.00;93196.38;5031327;28;20183;-74
2023/09/27 02:58:09;;;;;;;11.73;10.53;;;;;;;16.27;76.07;93202.59;5036084;28;20241;-74
2023/09/27 03:00:35;;;;;;;11.57;10.57;;;;;;;16.18;76.60;93196.47;5049294;28;20205;-74
2023/09/27 03:03:01;;;;;;;13.97;11.27;;;;;;;16.13;76.04;93193.94;5048856;28;20222;-74
2023/09/27 03:05:27;;;;;;;10.77;9.87;;;;;;;16.14;76.14;93200.00;5045028;28;20196;-75
2023/09/27 03:07:52;;;;;;;11.30;10.47;;;;;;;16.22;76.05;93200.06;5038014;28;20250;-74
2023/09/27 03:10:18;;;;;;;11.63;10.33;;;;;;;16.09;76.78;93198.28;5035447;28;20190;-74
2023/09/27 03:12:48;;;;;;;11.37;10.30;;;;;;;15.87;77.15;93177.16;5032871;28;20190;-79
2023/09/27 03:15:14;;;;;;;11.93;10.80;;;;;;;15.98;76.71;93204.84;5037167;28;20253;-79
2023/09/27 03:17:43;;;;;;;11.30;10.47;;;;;;;15.90;77.07;93201.06;5036411;28;20188;-77
2023/09/27 03:20:15;;;;;;;11.03;9.30;;;;;;;15.95;76.75;93206.19;5034071;28;20794;-79
2023/09/27 03:22:41;;;;;;;11.60;10.50;;;;;;;15.93;77.07;93189.94;5035545;28;20242;-79
2023/09/27 03:25:09;;;;;;;11.80;9.60;;;;;;;16.08;76.94;93202.75;5046330;28;20191;-78
2023/09/27 03:27:34;;;;;;;14.77;10.73;;;;;;;15.90;76.81;93184.47;5032543;28;20201;-79
2023/09/27 03:30:00;;;;;;;10.03;9.33;;;;;;;15.98;76.71;93199.56;5034492;28;20187;-78
2023/09/27 03:32:25;;;;;;;11.37;10.13;;;;;;;15.82;77.86;93183.31;5043378;28;20198;-79
2023/09/27 03:34:51;;;;;;;14.47;9.70;;;;;;;15.98;77.51;93205.59;5042022;28;20207;-78
2023/09/27 03:37:17;;;;;;;10.67;9.70;;;;;;;15.91;77.72;93196.53;5048831;28;20218;-78
2023/09/27 03:39:43;;;;;;;13.73;10.37;;;;;;;15.81;78.02;93189.63;5041179;28;20265;-79
2023/09/27 03:42:09;;;;;;;10.73;9.73;;;;;;;15.92;77.74;93201.50;5032950;28;20186;-79
2023/09/27 03:44:35;;;;;;;29.40;12.90;;;;;;;15.89;79.46;93198.72;5031121;28;20229;-78
2023/09/27 03:47:01;;;;;;;12.47;11.27;;;;;;;15.79;79.89;93201.56;5031834;28;20240;-79
2023/09/27 03:49:26;;;;;;;12.67;10.63;;;;;;;15.83;79.59;93213.03;5034920;28;20218;-79
2023/09/27 03:51:51;;;;;;;11.37;10.57;;;;;;;15.90;78.92;93213.44;5031757;28;20187;-78
2023/09/27 03:54:17;;;;;;;11.23;10.13;;;;;;;15.92;79.88;93213.91;5030188;28;20245;-79
2023/09/27 03:56:42;;;;;;;12.27;11.10;;;;;;;15.80;78.12;93211.78;5033132;28;20216;-78
2023/09/27 03:59:07;;;;;;;11.67;10.27;;;;;;;15.81;77.63;93215.22;5040341;28;20246;-78
2023/09/27 04:01:33;;;;;;;11.00;10.10;;;;;;;15.85;77.53;93216.16;5040194;28;20197;-79
2023/09/27 04:03:58;;;;;;;11.03;10.10;;;;;;;15.93;77.91;93220.75;5046292;28;20264;-79
2023/09/27 04:06:24;;;;;;;11.03;10.03;;;;;;;15.68;78.35;93192.31;5030819;28;20238;-79
2023/09/27 04:08:50;;;;;;;11.30;10.13;;;;;;;15.90;78.69;93226.59;5034038;28;20233;-79
2023/09/27 04:11:16;;;;;;;11.37;10.33;;;;;;;15.90;78.69;93227.38;5030437;28;20225;-79
2023/09/27 04:13:42;;;;;;;14.33;10.20;;;;;;;15.81;78.75;93223.88;5042570;28;20229;-79
2023/09/27 04:16:07;;;;;;;12.07;10.57;;;;;;;15.86;79.47;93225.63;5033821;28;20191;-79
2023/09/27 04:18:33;;;;;;;12.57;10.13;;;;;;;15.91;79.34;93222.88;5033906;28;20210;-79
2023/09/27 04:21:08;;;;;;;22.50;10.57;;;;;;;15.85;79.66;93235.38;5037249;28;20223;-78
2023/09/27 04:23:36;;;;;;;13.73;10.37;;;;;;;15.85;80.08;93229.34;5041650;28;20233;-79
2023/09/27 04:26:05;;;;;;;12.37;10.83;;;;;;;15.76;79.59;93213.47;5045449;28;20186;-79
2023/09/27 04:28:31;;;;;;;11.20;10.30;;;;;;;15.97;79.21;93233.03;5038877;28;20225;-79
2023/09/27 04:30:56;;;;;;;11.57;10.43;;;;;;;15.91;79.60;93231.56;5034980;28;20246;-79
2023/09/27 04:33:22;;;;;;;11.67;10.77;;;;;;;15.97;79.47;93230.38;5047951;28;20226;-79
2023/09/27 04:35:47;;;;;;;11.83;10.47;;;;;;;15.99;79.53;93238.78;5043695;28;20217;-79
2023/09/27 04:38:14;;;;;;;12.93;10.90;;;;;;;15.97;79.40;93224.31;5047793;28;20229;-79
2023/09/27 04:40:40;;;;;;;11.80;10.83;;;;;;;16.13;80.08;93235.31;5035070;28;20205;-80
2023/09/27 04:43:06;;;;;;;14.37;11.23;;;;;;;16.20;79.70;93241.75;5048350;28;20233;-79
2023/09/27 04:45:33;;;;;;;12.13;11.13;;;;;;;16.09;80.71;93235.16;5048372;28;20192;-79
2023/09/27 04:47:59;;;;;;;11.70;10.70;;;;;;;16.11;80.29;93238.25;5048676;28;20323;-79
2023/09/27 04:50:25;;;;;;;12.63;11.33;;;;;;;16.26;79.61;93248.47;5040077;28;20182;-79
2023/09/27 04:52:51;;;;;;;15.73;10.67;;;;;;;16.08;80.28;93229.09;5041744;28;20238;-79
2023/09/27 04:55:16;;;;;;;12.20;11.20;;;;;;;16.16;80.16;93238.16;5039910;28;20204;-78
2023/09/27 04:57:42;;;;;;;12.87;10.90;;;;;;;16.41;79.96;93248.13;5036915;28;20182;-75
2023/09/27 05:00:14;;;;;;;12.00;11.00;;;;;;;16.47;79.15;93239.06;5044400;28;20206;-74
2023/09/27 05:02:40;;;;;;;12.73;11.47;;;;;;;16.50;79.69;93246.38;5041847;28;20170;-74
2023/09/27 05:05:07;;;;;;;12.73;11.30;;;;;;;16.58;79.63;93247.50;5038256;28;20204;-80
2023/09/27 05:07:33;;;;;;;12.77;11.67;;;;;;;16.70;78.86;93253.78;5047386;28;20221;-75
2023/09/27 05:09:58;;;;;;;18.93;16.10;;;;;;;16.56;79.77;93252.31;5040084;28;20182;-75
2023/09/27 05:12:24;;;;;;;16.13;12.50;;;;;;;16.63;79.57;93250.81;5036706;28;20212;-75
2023/09/27 05:14:49;;;;;;;16.93;12.13;;;;;;;16.66;79.86;93250.22;5037684;28;20224;-74
2023/09/27 05:17:15;;;;;;;12.23;11.03;;;;;;;16.66;79.71;93247.56;5045567;28;20300;-74
2023/09/27 05:19:40;;;;;;;13.70;12.30;;;;;;;16.80;78.65;93256.19;5039042;28;20233;-74
2023/09/27 05:22:05;;;;;;;11.83;10.67;;;;;;;16.81;79.72;93257.75;5029704;28;20178;-73
2023/09/27 05:24:38;;;;;;;13.23;11.80;;;;;;;16.63;79.33;93245.53;5042789;28;20225;-74
2023/09/27 05:27:05;;;;;;;13.73;12.27;;;;;;;16.98;79.03;93263.13;5044402;28;20193;-74
2023/09/27 05:29:31;;;;;;;13.40;12.13;;;;;;;16.65;79.07;93253.16;5037797;28;20237;-73
2023/09/27 05:31:57;;;;;;;16.40;14.67;;;;;;;16.80;79.17;93260.69;5043644;28;20178;-81
2023/09/27 05:34:22;;;;;;;15.20;10.47;;;;;;;16.77;78.57;93263.94;5050682;28;20230;-77
2023/09/27 05:36:48;;;;;;;14.17;12.50;;;;;;;17.16;77.68;93264.03;5048726;28;20194;-77
2023/09/27 05:39:13;;;;;;;12.73;11.50;;;;;;;16.97;78.55;93261.59;5042296;28;20240;-76
2023/09/27 05:41:39;;;;;;;13.43;12.00;;;;;;;17.31;78.03;93267.06;5039885;28;20206;-77
2023/09/27 05:44:05;;;;;;;15.47;11.30;;;;;;;17.41;77.81;93271.28;5040153;28;20293;-75
2023/09/27 05:46:33;;;;;;;13.10;11.23;;;;;;;17.55;77.05;93270.16;5045985;28;20189;-76
2023/09/27 05:49:01;;;;;;;12.30;11.27;;;;;;;17.72;76.67;93258.09;5048696;28;20218;-79
2023/09/27 05:51:29;;;;;;;13.87;12.10;;;;;;;17.71;75.49;93267.88;5050331;28;20189;-76
2023/09/27 05:53:54;;;;;;;12.97;11.73;;;;;;;17.90;74.97;93272.91;5057623;28;20242;-76
2023/09/27 05:56:19;;;;;;;14.10;12.77;;;;;;;18.07;73.25;93272.97;5045630;28;20182;-76
2023/09/27 05:58:45;;;;;;;12.53;11.33;;;;;;;17.88;74.52;93262.66;5041449;28;20231;-75
2023/09/27 06:01:11;;;;;;;13.73;12.27;;;;;;;18.04;72.94;93265.66;5035458;28;20239;-75
2023/09/27 06:03:38;;;;;;;12.77;11.43;;;;;;;17.86;73.92;93271.97;5047956;28;20222;-75
2023/09/27 06:06:04;;;;;;;12.77;11.47;;;;;;;18.05;72.80;93260.06;5035045;28;20210;-75
2023/09/27 06:08:29;;;;;;;12.97;11.60;;;;;;;17.92;73.24;93270.72;5036071;28;20216;-75
2023/09/27 06:10:59;;;;;;;12.10;10.87;;;;;;;18.45;71.99;93279.25;5046056;28;20214;-75
2023/09/27 06:13:25;;;;;;;11.07;10.20;;;;;;;18.45;69.38;93263.38;5045306;28;20276;-76
2023/09/27 06:15:51;;;;;;;10.97;10.10;;;;;;;18.27;71.80;93281.06;5045601;28;20186;-74
2023/09/27 06:18:17;;;;;;;13.17;10.40;;;;;;;18.46;70.24;93280.81;5045942;28;20254;-75
2023/09/27 06:20:42;;;;;;;11.80;10.90;;;;;;;18.73;69.39;93291.09;5045670;28;20199;-74
2023/09/27 06:23:09;;;;;;;18.30;11.47;;;;;;;18.43;70.84;93287.50;5050880;28;20298;-83
2023/09/27 06:25:35;;;;;;;12.83;11.53;;;;;;;18.62;69.85;93281.91;5048911;28;20183;-75
2023/09/27 06:28:00;;;;;;;11.97;10.60;;;;;;;18.94;68.59;93302.63;5037972;28;20229;-76
2023/09/27 06:30:26;;;;;;;19.73;11.27;;;;;;;19.04;67.94;93299.63;5051224;28;20191;-75
2023/09/27 06:32:52;;;;;;;12.03;10.93;;;;;;;19.05;67.20;93301.22;5046310;28;20230;-74
2023/09/27 06:35:17;;;;;;;11.20;10.20;;;;;;;19.18;66.73;93292.31;5040520;28;20191;-74
2023/09/27 06:37:48;;;;;;;11.93;10.93;;;;;;;19.19;66.51;93305.22;5041421;28;20228;-74
2023/09/27 06:40:16;;;;;;;11.27;10.43;;;;;;;19.27;66.65;93301.00;5038109;28;20234;-75
2023/09/27 06:42:51;;;;;;;15.07;11.20;;;;;;;19.02;68.66;93288.56;5037173;28;20191;-74
2023/09/27 06:45:16;;;;;;;11.60;10.47;;;;;;;18.80;68.69;93296.72;5043290;28;20187;-74
2023/09/27 06:47:45;;;;;;;11.60;10.80;;;;;;;19.22;67.93;93295.88;5049059;28;20180;-74
2023/09/27 06:50:11;;;;;;;18.13;10.87;;;;;;;19.04;67.70;93297.78;5046562;28;20189;-75
2023/09/27 06:52:39;;;;;;;11.83;10.17;;;;;;;19.55;64.84;93286.31;5047586;28;20191;-74
2023/09/27 06:55:10;;;;;;;12.33;10.33;;;;;;;19.26;67.96;93294.16;5045693;28;20190;-74
2023/09/27 06:57:37;;;;;;;12.07;10.87;;;;;;;19.41;67.69;93298.22;5050551;28;20255;-74
2023/09/27 07:00:08;;;;;;;11.60;10.40;;;;;;;19.55;66.57;93299.56;5044275;28;20204;-74
2023/09/27 07:02:33;;;;;;;16.70;11.50;;;;;;;19.70;66.75;93304.38;5052993;28;20190;-74
2023/09/27 07:04:58;;;;;;;11.30;10.27;;;;;;;19.63;65.79;93304.06;5034439;28;20192;-75
2023/09/27 07:07:24;;;;;;;11.37;10.30;;;;;;;19.73;65.61;93298.44;5042398;28;20193;-75
2023/09/27 07:09:49;;;;;;;11.77;10.70;;;;;;;19.94;64.92;93312.50;5050400;28;20216;-75
2023/09/27 07:12:15;;;;;;;15.93;10.27;;;;;;;19.83;65.75;93292.75;5046222;28;20197;-75
2023/09/27 07:14:41;;;;;;;11.50;10.43;;;;;;;20.11;62.75;93312.44;5045610;28;20231;-75
2023/09/27 07:17:06;;;;;;;12.07;11.00;;;;;;;19.74;66.12;93315.88;5051576;28;20231;-74
2023/09/27 07:19:32;;;;;;;12.23;10.40;;;;;;;19.79;66.09;93309.63;5041839;28;20222;-75
2023/09/27 07:21:59;;;;;;;12.77;10.13;;;;;;;19.99;63.50;93312.34;5051346;28;20211;-75
2023/09/27 07:24:29;;;;;;;10.83;9.83;;;;;;;20.21;63.03;93322.72;5046849;28;20208;-75
2023/09/27 07:26:55;;;;;;;11.63;10.53;;;;;;;20.10;62.14;93324.16;5050398;28;20199;-75
2023/09/27 07:29:20;;;;;;;12.30;10.10;;;;;;;20.32;62.09;93313.31;5049856;28;20217;-75
2023/09/27 07:31:45;;;;;;;12.60;10.43;;;;;;;20.44;60.98;93316.03;5049841;28;20206;-75
2023/09/27 07:34:11;;;;;;;11.80;10.70;;;;;;;20.27;62.69;93318.78;5033077;28;20229;-75
2023/09/27 07:36:36;;;;;;;11.43;10.53;;;;;;;20.30;62.66;93320.81;5031286;28;20185;-75
2023/09/27 07:39:06;;;;;;;11.90;10.30;;;;;;;20.49;60.77;93321.16;5042835;28;20220;-74
2023/09/27 07:41:32;;;;;;;11.20;10.30;;;;;;;20.23;61.44;93312.56;5041397;28;20185;-75
2023/09/27 07:43:58;;;;;;;13.00;10.20;;;;;;;20.24;61.65;93322.09;5050184;28;20251;-75
2023/09/27 07:46:24;;;;;;;13.03;10.90;;;;;;;20.40;61.54;93327.63;5049204;28;20188;-75
2023/09/27 07:48:50;;;;;;;13.00;10.77;;;;;;;20.45;61.83;93320.22;5041425;28;20228;-75
2023/09/27 07:51:18;;;;;;;13.87;10.50;;;;;;;20.37;61.63;93310.44;5030580;28;20194;-75
2023/09/27 07:53:43;;;;;;;12.97;10.00;;;;;;;20.43;61.58;93322.44;5040191;28;20252;-74
2023/09/27 07:56:26;;;;;;;10.97;9.87;;;;;;;20.66;60.47;93315.75;5036741;28;20198;-74
2023/09/27 07:58:53;;;;;;;10.80;9.70;;;;;;;20.54;61.15;93317.53;5039948;28;20220;-75
2023/09/27 08:01:22;;;;;;;16.60;10.43;;;;;;;20.60;61.26;93319.69;5049283;28;20245;-74
2023/09/27 08:03:49;;;;;;;13.17;10.10;;;;;;;20.65;63.12;93319.47;5038532;28;20225;-75
2023/09/27 08:06:16;;;;;;;12.75;8.55;;;;;;;21.00;60.93;93321.91;5049465;28;20197;-75
2023/09/27 08:08:42;;;;;;;11.57;10.67;;;;;;;21.21;59.31;93320.03;5043981;28;20244;-74
2023/09/27 08:11:11;;;;;;;10.80;9.77;;;;;;;21.22;59.67;93316.25;5043925;28;20208;-75
2023/09/27 08:13:37;;;;;;;11.18;9.13;;;;;;;21.50;58.54;93319.88;5045945;28;20253;-75
2023/09/27 08:16:06;;;;;;;10.75;9.70;;;;;;;21.44;58.08;93323.84;5040456;28;20186;-75
2023/09/27 08:18:32;;;;;;;12.20;9.20;;;;;;;20.89;59.51;93312.78;5045132;28;20305;-75
2023/09/27 08:20:58;;;;;;;11.53;10.13;;;;;;;20.59;61.69;93307.50;5043365;28;20222;-75
2023/09/27 08:23:24;;;;;;;16.20;10.27;;;;;;;20.87;60.17;93312.31;5032180;28;20295;-75
2023/09/27 08:25:50;;;;;;;11.40;10.40;;;;;;;21.23;58.91;93301.88;5047625;28;20247;-75
2023/09/27 08:28:16;;;;;;;10.07;9.27;;;;;;;21.23;58.05;93307.19;5048025;28;20229;-75
2023/09/27 08:30:41;;;;;;;11.30;10.18;;;;;;;21.28;58.05;93317.59;5041428;28;20185;-75
2023/09/27 08:33:07;;;;;;;11.07;9.93;;;;;;;21.34;55.70;93316.31;5057969;28;20254;-75
2023/09/27 08:35:33;;;;;;;10.60;9.80;;;;;;;21.12;56.74;93306.03;5051406;28;20194;-75
2023/09/27 08:37:59;;;;;;;10.10;9.20;;;;;;;21.18;57.07;93302.88;5044594;28;20273;-75
2023/09/27 08:40:24;;;;;;;11.75;10.07;;;;;;;21.55;57.11;93309.84;5044212;28;20221;-75
2023/09/27 08:42:56;;;;;;;15.77;10.18;;;;;;;21.48;54.91;93296.31;5050454;28;20179;-74
2023/09/27 08:45:23;;;;;;;13.70;8.60;;;;;;;21.49;54.10;93295.22;5037962;28;20243;-76
2023/09/27 08:47:49;;;;;;;10.32;9.23;;;;;;;21.55;53.39;93309.84;5048733;28;20216;-76
2023/09/27 08:50:18;;;;;;;11.65;9.52;;;;;;;21.51;53.66;93303.63;5045475;28;20194;-75
2023/09/27 08:52:49;;;;;;;12.10;10.60;;;;;;;21.53;53.68;93301.41;5042867;28;20189;-75
2023/09/27 08:55:16;;;;;;;15.73;9.57;;;;;;;21.33;54.34;93304.13;5032948;28;20185;-76
2023/09/27 08:57:44;;;;;;;10.33;9.50;;;;;;;21.84;53.12;93303.59;5046916;28;20256;-76
2023/09/27 09:00:13;;;;;;;10.02;9.13;;;;;;;22.23;52.59;93300.28;5038435;28;20233;-76
2023/09/27 09:02:43;;;;;;;11.50;10.35;;;;;;;21.96;51.78;93295.66;5042073;28;20252;-75
2023/09/27 09:05:12;;;;;;;9.32;8.57;;;;;;;21.45;52.41;93299.63;5044010;28;20428;-77
2023/09/27 09:07:41;;;;;;;11.30;10.30;;;;;;;21.87;52.62;93287.75;5031576;28;20220;-76
2023/09/27 09:10:13;;;;;;;9.65;8.95;;;;;;;21.86;51.86;93288.09;5047179;28;20188;-75
2023/09/27 09:12:39;;;;;;;18.17;10.02;;;;;;;21.91;52.75;93274.59;5036777;28;20192;-75
2023/09/27 09:15:05;;;;;;;10.50;9.50;;;;;;;21.84;50.95;93300.94;5052767;28;20181;-76
2023/09/27 09:17:35;;;;;;;11.88;10.32;;;;;;;21.92;51.55;93300.06;5047158;28;20189;-76
2023/09/27 09:20:20;;;;;;;10.48;9.27;;;;;;;22.00;52.13;93299.19;5039263;28;20222;-75
2023/09/27 09:22:46;;;;;;;10.55;9.88;;;;;;;22.17;51.44;93291.00;5046598;28;20275;-74
2023/09/27 09:25:11;;;;;;;10.13;8.82;;;;;;;21.92;51.21;93286.78;5058220;28;20185;-74
2023/09/27 09:27:38;;;;;;;13.68;10.02;;;;;;;21.77;51.64;93280.25;5042950;28;20216;-76
2023/09/27 09:30:09;;;;;;;11.10;9.27;;;;;;;21.85;52.86;93279.34;5048958;28;20186;-76
2023/09/27 09:32:47;;;;;;;10.85;9.68;;;;;;;22.08;51.75;93285.00;5051680;28;20203;-75
2023/09/27 09:35:27;;;;;;;9.85;9.10;;;;;;;21.91;51.47;93288.66;5037079;28;20186;-77
2023/09/27 09:37:53;;;;;;;15.60;10.10;;;;;;;21.77;51.81;93277.59;5062818;28;20232;-76
2023/09/27 09:40:18;;;;;;;12.13;10.40;;;;;;;21.35;53.38;93284.09;5043259;28;20217;-76
2023/09/27 09:42:48;;;;;;;13.25;10.48;;;;;;;21.35;53.32;93280.66;5033944;28;20243;-76
2023/09/27 09:45:13;;;;;;;11.35;10.25;;;;;;;21.18;53.60;93275.53;5039900;28;20187;-76
2023/09/27 09:47:41;;;;;;;11.02;9.98;;;;;;;21.29;53.59;93260.72;5045198;28;20221;-76
2023/09/27 09:50:16;;;;;;;9.48;8.82;;;;;;;21.86;53.93;93274.81;5042776;28;20187;-76
2023/09/27 09:52:57;;;;;;;10.80;9.82;;;;;;;22.24;53.52;93275.25;5039533;28;20191;-76
2023/09/27 09:55:24;;;;;;;13.63;8.82;;;;;;;22.23;51.93;93267.63;5040281;28;20178;-75
2023/09/27 09:58:01;;;;;;;14.07;9.52;;;;;;;22.16;51.52;93274.25;5040054;28;20187;-76
2023/09/27 10:00:27;;;;;;;12.15;9.23;;;;;;;21.96;52.00;93263.75;5046263;28;20225;-76
2023/09/27 10:03:04;;;;;;;10.57;9.70;;;;;;;22.17;51.05;93269.72;5032117;28;20223;-76
2023/09/27 10:05:38;;;;;;;10.75;9.35;;;;;;;22.39;51.47;93265.81;5037074;28;20196;-76
2023/09/27 10:08:07;;;;;;;10.05;9.02;;;;;;;22.47;50.45;93265.69;5044789;28;20236;-76
2023/09/27 10:10:33;;;;;;;9.88;8.88;;;;;;;22.78;49.49;93265.88;5043432;28;20199;-76
2023/09/27 10:13:02;;;;;;;10.43;9.15;;;;;;;22.79;50.38;93267.41;5050880;28;20243;-75
2023/09/27 10:15:32;;;;;;;9.88;9.20;;;;;;;22.78;49.53;93249.91;5043235;28;20211;-76
2023/09/27 10:18:22;;;;;;;10.63;9.20;;;;;;;22.85;49.95;93265.31;5050609;28;20237;-75
2023/09/27 10:21:03;;;;;;;11.25;10.25;;;;;;;22.80;49.59;93258.31;5049117;28;20279;-75
2023/09/27 10:23:45;;;;;;;11.00;8.90;;;;;;;22.81;49.68;93254.53;5035855;28;20231;-75
2023/09/27 10:26:17;;;;;;;10.15;9.00;;;;;;;22.87;49.14;93253.19;5045474;28;20220;-76
2023/09/27 10:29:04;;;;;;;11.27;9.60;;;;;;;22.86;49.36;93256.19;5044481;28;20288;-75
2023/09/27 10:31:30;;;;;;;13.45;9.27;;;;;;;22.58;49.57;93240.19;5044542;28;20306;-75
2023/09/27 10:33:56;;;;;;;11.60;10.60;;;;;;;22.69;49.26;93243.16;5060075;28;20242;-76
2023/09/27 10:36:21;;;;;;;9.98;9.05;;;;;;;22.81;48.70;93238.56;5046251;28;20195;-75
2023/09/27 10:38:50;;;;;;;10.15;9.02;;;;;;;22.48;49.27;93240.63;5047537;28;20223;-76
2023/09/27 10:41:42;;;;;;;10.48;9.57;;;;;;;22.47;48.42;93233.75;5050897;28;20218;-76
2023/09/27 10:44:08;;;;;;;10.93;9.18;;;;;;;22.34;50.33;93240.19;5045079;28;20216;-76
2023/09/27 10:46:49;;;;;;;10.95;9.02;;;;;;;22.48;49.78;93235.31;5044976;28;20194;-75
2023/09/27 10:49:38;;;;;;;9.75;8.90;;;;;;;22.42;49.14;93228.66;5034438;28;20238;-75
2023/09/27 10:52:14;;;;;;;11.90;9.35;;;;;;;22.68;49.51;93230.97;5036292;28;20198;-76
2023/09/27 10:54:39;;;;;;;10.38;9.63;;;;;;;22.64;48.74;93222.09;5034825;28;20233;-76
2023/09/27 10:57:06;;;;;;;11.30;9.00;;;;;;;22.63;48.62;93208.00;5046906;28;20186;-75
2023/09/27 10:59:31;;;;;;;10.15;9.18;;;;;;;22.71;48.27;93223.06;5041024;28;20229;-75
2023/09/27 11:01:58;;;;;;;9.80;8.77;;;;;;;22.91;48.12;93219.44;5049671;28;20191;-76
2023/09/27 11:04:25;;;;;;;15.98;9.65;;;;;;;22.93;48.85;93219.88;5046463;28;20224;-75
2023/09/27 11:06:52;;;;;;;11.27;9.93;;;;;;;22.80;50.02;93218.38;5039511;28;20193;-76
2023/09/27 11:09:22;;;;;;;10.40;9.45;;;;;;;22.38;50.60;93201.19;5039780;28;20223;-75
2023/09/27 11:11:49;;;;;;;10.70;9.70;;;;;;;22.46;50.81;93213.56;5042301;28;20191;-76
2023/09/27 11:14:27;;;;;;;10.15;9.00;;;;;;;22.26;51.99;93206.50;5042461;28;20232;-76
2023/09/27 11:16:53;;;;;;;23.00;10.20;;;;;;;22.03;51.10;93208.09;5036624;28;20192;-77
2023/09/27 11:19:29;;;;;;;10.25;9.35;;;;;;;22.18;51.37;93208.19;5038000;28;20225;-74
2023/09/27 11:21:54;;;;;;;9.82;9.13;;;;;;;22.35;52.03;93209.81;5038368;28;20209;-76